Time;durP1;ratioP1;P1;durP2;ratioP2;P2;SDS_P1;SDS_P2;PMS_P1;PMS_P2;Temp;Humidity;BMP_temperature;BMP_pressure;BME280_temperature;BME280_humidity;BME280_pressure;Samples;Min_cycle;Max_cycle;Signal;HPM_P1;HPM_P2
2022/10/17 00:00:18;;;;;;;0.13;0.13;;;;;;;;;;4891395;29;20388;-82
2022/10/17 00:02:44;;;;;;;0.20;0.20;;;;;;;;;;4874558;29;20170;-82
2022/10/17 00:05:11;;;;;;;0.20;0.20;;;;;;;;;;4870220;29;20124;-82
2022/10/17 00:07:37;;;;;;;0.20;0.20;;;;;;;;;;4889696;29;20053;-83
2022/10/17 00:10:04;;;;;;;0.10;0.10;;;;;;;;;;4871315;29;20075;-82
2022/10/17 00:12:30;;;;;;;0.15;0.15;;;;;;;;;;4876298;29;20055;-82
2022/10/17 00:14:56;;;;;;;0.20;0.20;;;;;;;;;;4879082;29;20048;-82
2022/10/17 00:17:22;;;;;;;0.20;0.20;;;;;;;;;;4880558;29;20053;-82
2022/10/17 00:19:48;;;;;;;0.10;0.10;;;;;;;;;;4893385;29;20040;-82
2022/10/17 00:22:14;;;;;;;0.10;0.10;;;;;;;;;;4893442;29;20048;-82
2022/10/17 00:24:40;;;;;;;0.10;0.10;;;;;;;;;;4890905;29;20110;-82
2022/10/17 00:27:06;;;;;;;0.10;0.10;;;;;;;;;;4883511;29;20056;-82
2022/10/17 00:29:32;;;;;;;0.10;0.10;;;;;;;;;;4889710;29;20045;-82
2022/10/17 00:31:58;;;;;;;0.20;0.20;;;;;;;;;;4884788;29;20033;-82
2022/10/17 00:34:24;;;;;;;0.15;0.15;;;;;;;;;;4885696;29;20056;-82
2022/10/17 00:36:50;;;;;;;0.10;0.10;;;;;;;;;;4898925;29;20055;-83
2022/10/17 00:39:16;;;;;;;0.10;0.10;;;;;;;;;;4887481;29;20064;-83
2022/10/17 00:41:42;;;;;;;0.20;0.20;;;;;;;;;;4898074;29;20143;-82
2022/10/17 00:44:41;;;;;;;0.20;0.20;;;;;;;;;;4903343;29;20044;-83
2022/10/17 00:47:09;;;;;;;0.10;0.10;;;;;;;;;;4858600;29;20052;-82
2022/10/17 00:49:36;;;;;;;0.10;0.10;;;;;;;;;;4897356;29;20119;-83
2022/10/17 00:52:04;;;;;;;0.10;0.10;;;;;;;;;;4883452;29;20151;-83
2022/10/17 00:54:32;;;;;;;0.20;0.20;;;;;;;;;;4884059;29;20080;-83
2022/10/17 00:56:58;;;;;;;0.10;0.10;;;;;;;;;;4903620;29;20124;-82
2022/10/17 00:59:25;;;;;;;0.20;0.20;;;;;;;;;;4888614;29;20048;-83
2022/10/17 01:01:56;;;;;;;0.10;0.10;;;;;;;;;;4898108;29;20060;-82
2022/10/17 01:04:22;;;;;;;0.20;0.20;;;;;;;;;;4886996;29;20112;-82
2022/10/17 01:06:48;;;;;;;0.10;0.10;;;;;;;;;;4876507;29;20488;-83
2022/10/17 01:09:14;;;;;;;0.10;0.10;;;;;;;;;;4885012;29;20044;-83
2022/10/17 01:11:51;;;;;;;0.20;0.20;;;;;;;;;;4905578;29;20044;-83
2022/10/17 01:14:21;;;;;;;0.10;0.10;;;;;;;;;;4880593;29;20066;-83
2022/10/17 01:16:56;;;;;;;0.17;0.17;;;;;;;;;;4882759;29;20044;-83
2022/10/17 01:19:31;;;;;;;0.10;0.10;;;;;;;;;;4892397;29;20424;-83
2022/10/17 01:22:00;;;;;;;0.20;0.20;;;;;;;;;;4886386;29;20921;-83
2022/10/17 01:24:38;;;;;;;0.10;0.10;;;;;;;;;;4891192;29;20075;-82
2022/10/17 01:27:23;;;;;;;0.20;0.20;;;;;;;;;;4879815;29;20980;-82
2022/10/17 01:29:58;;;;;;;0.15;0.15;;;;;;;;;;4866364;29;20049;-83
2022/10/17 01:32:24;;;;;;;0.10;0.10;;;;;;;;;;4884508;29;20100;-83
2022/10/17 01:34:50;;;;;;;0.20;0.20;;;;;;;;;;4886642;29;20059;-82
2022/10/17 01:37:22;;;;;;;0.20;0.20;;;;;;;;;;4869570;29;20148;-82
2022/10/17 01:39:53;;;;;;;0.10;0.10;;;;;;;;;;4869701;29;20045;-83
2022/10/17 01:42:23;;;;;;;0.10;0.10;;;;;;;;;;4869662;29;20557;-83
2022/10/17 01:44:56;;;;;;;0.20;0.20;;;;;;;;;;4870466;29;20047;-82
2022/10/17 01:47:24;;;;;;;0.10;0.10;;;;;;;;;;4872093;29;20056;-83
2022/10/17 01:49:52;;;;;;;0.20;0.20;;;;;;;;;;4872023;29;20045;-83
2022/10/17 01:52:20;;;;;;;0.20;0.20;;;;;;;;;;4870422;29;20064;-83
2022/10/17 01:54:49;;;;;;;0.17;0.17;;;;;;;;;;4872375;29;20036;-83
2022/10/17 01:57:18;;;;;;;0.20;0.20;;;;;;;;;;4872572;29;20076;-83
2022/10/17 01:59:48;;;;;;;0.10;0.10;;;;;;;;;;4866638;29;20692;-83
2022/10/17 02:02:14;;;;;;;0.10;0.10;;;;;;;;;;4868137;29;20144;-84
2022/10/17 02:04:41;;;;;;;0.10;0.10;;;;;;;;;;4871569;29;20382;-83
2022/10/17 02:07:08;;;;;;;0.10;0.10;;;;;;;;;;4867431;29;20053;-84
2022/10/17 02:09:35;;;;;;;0.20;0.20;;;;;;;;;;4873306;29;20065;-82
2022/10/17 02:12:28;;;;;;;0.10;0.10;;;;;;;;;;4871158;29;20139;-83
2022/10/17 02:15:06;;;;;;;0.20;0.20;;;;;;;;;;4873750;29;20386;-82
2022/10/17 02:17:42;;;;;;;0.10;0.10;;;;;;;;;;4871675;29;20068;-83
2022/10/17 02:20:08;;;;;;;0.13;0.13;;;;;;;;;;4865300;29;20089;-84
2022/10/17 02:22:34;;;;;;;0.10;0.10;;;;;;;;;;4872536;29;20101;-83
2022/10/17 02:25:05;;;;;;;0.10;0.10;;;;;;;;;;4873429;29;20132;-82
2022/10/17 02:27:36;;;;;;;0.15;0.15;;;;;;;;;;4869781;29;20119;-83
2022/10/17 02:30:08;;;;;;;0.10;0.10;;;;;;;;;;4868860;29;20045;-84
2022/10/17 02:32:38;;;;;;;0.10;0.10;;;;;;;;;;4871672;29;20116;-83
2022/10/17 02:35:06;;;;;;;0.10;0.10;;;;;;;;;;4868747;29;20061;-82
2022/10/17 02:37:33;;;;;;;0.10;0.10;;;;;;;;;;4864627;29;20064;-84
2022/10/17 02:40:00;;;;;;;0.20;0.20;;;;;;;;;;4869236;29;20056;-83
2022/10/17 02:42:30;;;;;;;0.20;0.20;;;;;;;;;;4867097;29;20639;-83
2022/10/17 02:44:58;;;;;;;0.10;0.10;;;;;;;;;;4869094;29;20052;-83
2022/10/17 02:47:31;;;;;;;0.20;0.20;;;;;;;;;;4875560;29;20049;-83
2022/10/17 02:49:57;;;;;;;0.10;0.10;;;;;;;;;;4866563;29;20612;-83
2022/10/17 02:52:26;;;;;;;0.20;0.20;;;;;;;;;;4872012;29;20049;-84
2022/10/17 02:55:02;;;;;;;0.20;0.20;;;;;;;;;;4869729;29;20049;-84
2022/10/17 02:57:28;;;;;;;0.20;0.20;;;;;;;;;;4866672;29;20071;-83
2022/10/17 02:59:56;;;;;;;0.20;0.20;;;;;;;;;;4867950;29;20461;-83
2022/10/17 03:02:22;;;;;;;0.10;0.10;;;;;;;;;;4868951;29;20044;-84
2022/10/17 03:04:48;;;;;;;0.20;0.20;;;;;;;;;;4870799;29;20128;-83
2022/10/17 03:07:14;;;;;;;0.20;0.20;;;;;;;;;;4873855;29;20044;-83
2022/10/17 03:09:40;;;;;;;0.20;0.20;;;;;;;;;;4875125;29;20045;-83
2022/10/17 03:12:06;;;;;;;0.17;0.17;;;;;;;;;;4870965;29;20050;-83
2022/10/17 03:14:32;;;;;;;0.10;0.10;;;;;;;;;;4867320;29;20094;-83
2022/10/17 03:16:58;;;;;;;0.17;0.17;;;;;;;;;;4871914;29;20073;-84
2022/10/17 03:19:24;;;;;;;0.20;0.20;;;;;;;;;;4873965;29;20049;-84
2022/10/17 03:21:50;;;;;;;0.10;0.10;;;;;;;;;;4871225;29;20068;-82
2022/10/17 03:24:16;;;;;;;0.10;0.10;;;;;;;;;;4875176;29;20135;-83
2022/10/17 03:26:42;;;;;;;0.20;0.20;;;;;;;;;;4873580;29;20177;-83
2022/10/17 03:29:08;;;;;;;0.10;0.10;;;;;;;;;;4869609;29;20037;-83
2022/10/17 03:31:35;;;;;;;0.20;0.20;;;;;;;;;;4873815;29;20049;-83
2022/10/17 03:34:02;;;;;;;0.20;0.20;;;;;;;;;;4873448;29;20695;-83
2022/10/17 03:36:28;;;;;;;0.10;0.10;;;;;;;;;;4883453;29;20219;-84
2022/10/17 03:38:54;;;;;;;0.10;0.10;;;;;;;;;;4899969;29;20147;-82
2022/10/17 03:41:20;;;;;;;0.13;0.13;;;;;;;;;;4885964;29;20400;-84
2022/10/17 03:43:46;;;;;;;0.13;0.13;;;;;;;;;;4880299;29;20056;-82
2022/10/17 03:46:12;;;;;;;0.10;0.10;;;;;;;;;;4876793;29;20047;-84
2022/10/17 03:48:38;;;;;;;0.10;0.10;;;;;;;;;;4896605;29;20221;-83
2022/10/17 03:51:08;;;;;;;0.10;0.10;;;;;;;;;;4885451;29;20149;-83
2022/10/17 03:53:35;;;;;;;0.10;0.10;;;;;;;;;;4883061;29;20048;-83
2022/10/17 03:56:17;;;;;;;0.20;0.20;;;;;;;;;;4891462;29;20399;-83
2022/10/17 03:58:44;;;;;;;0.17;0.17;;;;;;;;;;4909051;29;20083;-83
2022/10/17 04:01:11;;;;;;;0.20;0.20;;;;;;;;;;4898310;29;20047;-83
2022/10/17 04:03:37;;;;;;;0.15;0.15;;;;;;;;;;4903151;29;20512;-83
2022/10/17 04:06:04;;;;;;;0.10;0.10;;;;;;;;;;4882036;29;20771;-84
2022/10/17 04:08:31;;;;;;;0.15;0.15;;;;;;;;;;4881949;29;20052;-83
2022/10/17 04:11:04;;;;;;;0.10;0.10;;;;;;;;;;4896073;29;20037;-83
2022/10/17 04:13:30;;;;;;;0.20;0.20;;;;;;;;;;4881301;29;20131;-83
2022/10/17 04:16:01;;;;;;;0.10;0.10;;;;;;;;;;4898024;29;20052;-82
2022/10/17 04:18:27;;;;;;;0.10;0.10;;;;;;;;;;4884036;29;20702;-83
2022/10/17 04:20:53;;;;;;;0.20;0.20;;;;;;;;;;4877860;29;20095;-83
2022/10/17 04:23:19;;;;;;;0.17;0.17;;;;;;;;;;4899410;29;20144;-83
2022/10/17 04:25:45;;;;;;;0.15;0.15;;;;;;;;;;4901577;29;20052;-84
2022/10/17 04:28:12;;;;;;;0.10;0.10;;;;;;;;;;4881055;29;20048;-82
2022/10/17 04:30:39;;;;;;;0.20;0.20;;;;;;;;;;4889723;29;20173;-84
2022/10/17 04:33:05;;;;;;;0.10;0.10;;;;;;;;;;4870130;29;20048;-82
2022/10/17 04:35:31;;;;;;;0.10;0.10;;;;;;;;;;4868855;29;20131;-83
2022/10/17 04:37:57;;;;;;;0.20;0.20;;;;;;;;;;4871580;29;20148;-82
2022/10/17 04:40:23;;;;;;;0.10;0.10;;;;;;;;;;4865725;29;20064;-82
2022/10/17 04:42:49;;;;;;;0.10;0.10;;;;;;;;;;4865232;29;20093;-83
2022/10/17 04:45:15;;;;;;;0.10;0.10;;;;;;;;;;4870296;29;20052;-84
2022/10/17 04:47:41;;;;;;;0.15;0.15;;;;;;;;;;4872689;29;20041;-83
2022/10/17 04:50:07;;;;;;;0.10;0.10;;;;;;;;;;4873760;29;20129;-83
2022/10/17 04:52:36;;;;;;;0.10;0.10;;;;;;;;;;4872688;29;20053;-83
2022/10/17 04:55:03;;;;;;;0.10;0.10;;;;;;;;;;4871442;29;20391;-83
2022/10/17 04:57:29;;;;;;;0.20;0.20;;;;;;;;;;4872516;29;20113;-83
2022/10/17 04:59:55;;;;;;;0.20;0.20;;;;;;;;;;4873306;29;20056;-84
2022/10/17 05:02:22;;;;;;;0.17;0.17;;;;;;;;;;4872391;29;20115;-83
2022/10/17 05:04:48;;;;;;;0.10;0.10;;;;;;;;;;4868774;29;20140;-84
2022/10/17 05:07:14;;;;;;;0.15;0.15;;;;;;;;;;4868720;29;20056;-82
2022/10/17 05:09:40;;;;;;;0.10;0.10;;;;;;;;;;4870993;29;20109;-82
2022/10/17 05:12:06;;;;;;;0.20;0.20;;;;;;;;;;4871876;29;20053;-82
2022/10/17 05:14:32;;;;;;;0.20;0.20;;;;;;;;;;4874023;29;20131;-82
2022/10/17 05:16:58;;;;;;;0.10;0.10;;;;;;;;;;4871952;29;20124;-83
2022/10/17 05:19:24;;;;;;;0.10;0.10;;;;;;;;;;4870309;29;20045;-82
2022/10/17 05:21:50;;;;;;;0.20;0.20;;;;;;;;;;4871498;29;20096;-83
2022/10/17 05:24:16;;;;;;;0.10;0.10;;;;;;;;;;4872397;29;20121;-83
2022/10/17 05:26:42;;;;;;;0.10;0.10;;;;;;;;;;4874945;29;20132;-82
2022/10/17 05:29:09;;;;;;;0.10;0.10;;;;;;;;;;4870959;29;20045;-82
2022/10/17 05:31:35;;;;;;;0.20;0.20;;;;;;;;;;4871024;29;20052;-83
2022/10/17 05:34:01;;;;;;;0.10;0.10;;;;;;;;;;4871476;29;20057;-83
2022/10/17 05:36:28;;;;;;;0.15;0.15;;;;;;;;;;4871029;29;20069;-83
2022/10/17 05:38:54;;;;;;;0.10;0.10;;;;;;;;;;4872752;29;20045;-83
2022/10/17 05:41:20;;;;;;;0.10;0.10;;;;;;;;;;4873815;29;20746;-83
2022/10/17 05:43:46;;;;;;;0.10;0.10;;;;;;;;;;4870563;29;20053;-83
2022/10/17 05:46:12;;;;;;;0.17;0.17;;;;;;;;;;4863142;29;20072;-84
2022/10/17 05:48:39;;;;;;;0.10;0.10;;;;;;;;;;4857903;29;20161;-83
2022/10/17 05:51:07;;;;;;;0.10;0.10;;;;;;;;;;4865169;29;20145;-83
2022/10/17 05:53:34;;;;;;;0.10;0.10;;;;;;;;;;4866699;29;20110;-84
2022/10/17 05:56:02;;;;;;;0.10;0.10;;;;;;;;;;4864870;29;20128;-83
2022/10/17 05:58:30;;;;;;;0.10;0.10;;;;;;;;;;4872081;29;20116;-83
2022/10/17 06:01:00;;;;;;;0.15;0.15;;;;;;;;;;4865904;29;20127;-83
2022/10/17 06:03:26;;;;;;;0.10;0.10;;;;;;;;;;4871995;29;20635;-83
2022/10/17 06:05:53;;;;;;;0.10;0.10;;;;;;;;;;4872222;29;20145;-83
2022/10/17 06:08:19;;;;;;;0.10;0.10;;;;;;;;;;4865249;29;20053;-83
2022/10/17 06:10:49;;;;;;;0.17;0.17;;;;;;;;;;4858485;29;20636;-84
2022/10/17 06:13:16;;;;;;;0.20;0.20;;;;;;;;;;4872709;29;20037;-83
2022/10/17 06:15:42;;;;;;;0.10;0.10;;;;;;;;;;4858037;29;20516;-83
2022/10/17 06:18:09;;;;;;;0.10;0.10;;;;;;;;;;4875939;29;20052;-83
2022/10/17 06:20:35;;;;;;;0.10;0.10;;;;;;;;;;4866438;29;20052;-82
2022/10/17 06:23:01;;;;;;;0.20;0.20;;;;;;;;;;4846930;29;20128;-82
2022/10/17 06:25:28;;;;;;;0.10;0.10;;;;;;;;;;4859661;29;20490;-84
2022/10/17 06:27:54;;;;;;;0.15;0.15;;;;;;;;;;4871571;29;20105;-84
2022/10/17 06:30:20;;;;;;;0.10;0.10;;;;;;;;;;4873568;29;20446;-84
2022/10/17 06:32:46;;;;;;;0.10;0.10;;;;;;;;;;4869633;29;20045;-85
2022/10/17 06:35:12;;;;;;;0.10;0.10;;;;;;;;;;4868658;29;20089;-83
2022/10/17 06:37:38;;;;;;;0.10;0.10;;;;;;;;;;4865881;29;20401;-84
2022/10/17 06:40:06;;;;;;;0.20;0.20;;;;;;;;;;4873498;29;20424;-83
2022/10/17 06:42:33;;;;;;;0.10;0.10;;;;;;;;;;4873242;29;20056;-83
2022/10/17 06:44:59;;;;;;;0.10;0.10;;;;;;;;;;4876865;29;20100;-84
2022/10/17 06:47:25;;;;;;;0.13;0.13;;;;;;;;;;4872880;29;20189;-84
2022/10/17 06:49:51;;;;;;;0.10;0.10;;;;;;;;;;4872626;29;20498;-83
2022/10/17 06:52:20;;;;;;;0.10;0.10;;;;;;;;;;4877651;29;20434;-84
2022/10/17 06:54:46;;;;;;;0.10;0.10;;;;;;;;;;4875640;29;20075;-86
2022/10/17 06:57:12;;;;;;;0.10;0.10;;;;;;;;;;4875255;29;20060;-86
2022/10/17 06:59:38;;;;;;;0.10;0.10;;;;;;;;;;4861305;29;20053;-84
2022/10/17 07:02:05;;;;;;;0.20;0.20;;;;;;;;;;4856612;29;20481;-83
2022/10/17 07:04:31;;;;;;;0.57;0.30;;;;;;;;;;4874717;29;20060;-84
2022/10/17 07:06:57;;;;;;;0.10;0.10;;;;;;;;;;4859901;29;20095;-84
2022/10/17 07:09:23;;;;;;;0.10;0.10;;;;;;;;;;4873667;29;20057;-84
2022/10/17 07:11:50;;;;;;;0.10;0.10;;;;;;;;;;4860907;29;20069;-83
2022/10/17 07:14:16;;;;;;;0.10;0.10;;;;;;;;;;4876475;29;20365;-84
2022/10/17 07:16:42;;;;;;;0.10;0.10;;;;;;;;;;4865540;29;20505;-84
2022/10/17 07:19:08;;;;;;;0.20;0.20;;;;;;;;;;4872137;29;20056;-84
2022/10/17 07:21:34;;;;;;;0.20;0.20;;;;;;;;;;4858402;29;20052;-84
2022/10/17 07:24:00;;;;;;;0.15;0.15;;;;;;;;;;4855505;29;20049;-82
2022/10/17 07:26:26;;;;;;;0.20;0.20;;;;;;;;;;4874725;29;20055;-83
2022/10/17 07:28:54;;;;;;;0.10;0.10;;;;;;;;;;4857259;29;20045;-83
2022/10/17 07:31:21;;;;;;;0.20;0.20;;;;;;;;;;4877907;29;20507;-83
2022/10/17 07:33:47;;;;;;;0.10;0.10;;;;;;;;;;4869810;29;20357;-83
2022/10/17 07:36:13;;;;;;;0.20;0.20;;;;;;;;;;4874587;29;20523;-83
2022/10/17 07:38:41;;;;;;;0.10;0.10;;;;;;;;;;4873089;29;20052;-83
2022/10/17 07:41:07;;;;;;;0.10;0.10;;;;;;;;;;4867418;29;20072;-83
2022/10/17 07:43:34;;;;;;;0.13;0.13;;;;;;;;;;4854833;29;20087;-83
2022/10/17 07:46:01;;;;;;;0.15;0.15;;;;;;;;;;4858449;29;20074;-84
2022/10/17 07:48:27;;;;;;;0.20;0.20;;;;;;;;;;4860503;29;20053;-84
2022/10/17 07:50:53;;;;;;;0.10;0.10;;;;;;;;;;4871991;29;20563;-83
2022/10/17 07:53:19;;;;;;;0.20;0.20;;;;;;;;;;4856029;29;20181;-84
2022/10/17 07:55:46;;;;;;;0.10;0.10;;;;;;;;;;4873160;29;20136;-83
2022/10/17 07:58:13;;;;;;;0.13;0.13;;;;;;;;;;4872070;29;20133;-83
2022/10/17 08:00:39;;;;;;;0.20;0.20;;;;;;;;;;4869703;29;20489;-84
2022/10/17 08:03:05;;;;;;;0.20;0.20;;;;;;;;;;4852099;29;20086;-84
2022/10/17 08:05:32;;;;;;;0.20;0.20;;;;;;;;;;4869300;29;20572;-84
2022/10/17 08:07:58;;;;;;;0.10;0.10;;;;;;;;;;4871470;29;20052;-82
2022/10/17 08:10:28;;;;;;;0.20;0.20;;;;;;;;;;4872845;29;20037;-83
2022/10/17 08:12:55;;;;;;;0.13;0.13;;;;;;;;;;4864447;29;20081;-83
2022/10/17 08:15:21;;;;;;;0.10;0.10;;;;;;;;;;4868046;29;20056;-81
2022/10/17 08:17:47;;;;;;;0.13;0.13;;;;;;;;;;4866580;29;20271;-82
2022/10/17 08:20:13;;;;;;;0.20;0.20;;;;;;;;;;4874087;29;20037;-84
2022/10/17 08:22:39;;;;;;;0.20;0.20;;;;;;;;;;4872053;29;20083;-83
2022/10/17 08:25:06;;;;;;;0.20;0.20;;;;;;;;;;4851997;29;20556;-83
2022/10/17 08:27:32;;;;;;;0.10;0.10;;;;;;;;;;4853854;29;20610;-84
2022/10/17 08:29:58;;;;;;;0.10;0.10;;;;;;;;;;4854035;29;20069;-83
2022/10/17 08:32:25;;;;;;;0.10;0.10;;;;;;;;;;4872652;29;20060;-85
2022/10/17 08:34:55;;;;;;;0.10;0.10;;;;;;;;;;4874864;29;20169;-85
2022/10/17 08:37:21;;;;;;;0.20;0.20;;;;;;;;;;4873530;29;20060;-82
2022/10/17 08:39:48;;;;;;;0.20;0.20;;;;;;;;;;4881151;29;20063;-85
2022/10/17 08:42:17;;;;;;;0.20;0.20;;;;;;;;;;4889322;29;20044;-83
2022/10/17 08:45:01;;;;;;;0.10;0.10;;;;;;;;;;4880065;29;20574;-82
2022/10/17 08:47:48;;;;;;;0.20;0.20;;;;;;;;;;4888481;29;20048;-82
2022/10/17 08:50:32;;;;;;;0.17;0.17;;;;;;;;;;4889524;29;20128;-80
2022/10/17 08:53:04;;;;;;;0.20;0.20;;;;;;;;;;4873273;29;20116;-85
2022/10/17 08:55:29;;;;;;;;;;;;;;;;;;4897374;29;20060;-85
2022/10/17 08:57:55;;;;;;;0.20;0.20;;;;;;;;;;4892438;29;19931;-85
2022/10/17 09:00:22;;;;;;;0.10;0.10;;;;;;;;;;4892981;29;20082;-85
2022/10/17 09:02:53;;;;;;;0.10;0.10;;;;;;;;;;4885958;29;20036;-85
2022/10/17 09:05:19;;;;;;;;;;;;;;;;;;4886455;29;20446;-86
2022/10/17 09:07:45;;;;;;;0.10;0.10;;;;;;;;;;4888911;29;19939;-84
2022/10/17 09:10:17;;;;;;;0.20;0.20;;;;;;;;;;4893323;29;20416;-86
2022/10/17 09:12:51;;;;;;;0.10;0.10;;;;;;;;;;4888538;29;20532;-86
2022/10/17 09:15:17;;;;;;;0.13;0.13;;;;;;;;;;4884750;29;20044;-86
2022/10/17 09:18:02;;;;;;;0.20;0.20;;;;;;;;;;4895114;29;20111;-84
2022/10/17 09:20:31;;;;;;;0.20;0.20;;;;;;;;;;4892879;29;20048;-86
2022/10/17 09:22:57;;;;;;;0.20;0.20;;;;;;;;;;4888001;29;20360;-85
2022/10/17 09:25:23;;;;;;;0.32;0.22;;;;;;;;;;4871892;29;20053;-85
2022/10/17 09:28:03;;;;;;;0.20;0.20;;;;;;;;;;4886274;29;20044;-86
2022/10/17 09:30:43;;;;;;;0.10;0.10;;;;;;;;;;4885456;29;20697;-88
2022/10/17 09:33:14;;;;;;;0.20;0.20;;;;;;;;;;4875820;29;20059;-85
2022/10/17 09:35:40;;;;;;;0.20;0.20;;;;;;;;;;4878413;29;20076;-88
2022/10/17 09:47:00;;;;;;;0.13;0.13;;;;;;;;;;4910738;29;20202;-87
2022/10/17 09:49:34;;;;;;;0.10;0.10;;;;;;;;;;4896630;29;20693;-87
2022/10/17 09:52:02;;;;;;;0.20;0.20;;;;;;;;;;4914501;29;20048;-73
2022/10/17 09:54:48;;;;;;;0.20;0.20;;;;;;;;;;4899288;29;20402;-73
2022/10/17 09:57:15;;;;;;;0.20;0.20;;;;;;;;;;4901483;29;20154;-87
2022/10/17 09:59:45;;;;;;;0.20;0.20;;;;;;;;;;4901464;29;20102;-86
2022/10/17 10:02:11;;;;;;;0.20;0.20;;;;;;;;;;4890058;29;20448;-87
2022/10/17 10:04:58;;;;;;;0.20;0.20;;;;;;;;;;4900755;29;20126;-87
2022/10/17 10:07:31;;;;;;;0.17;0.17;;;;;;;;;;4906840;29;20476;-84
2022/10/17 10:09:58;;;;;;;0.20;0.20;;;;;;;;;;4899839;29;20052;-82
2022/10/17 10:12:29;;;;;;;0.20;0.20;;;;;;;;;;4917039;29;20786;-86
2022/10/17 10:14:56;;;;;;;0.20;0.20;;;;;;;;;;4897563;29;20154;-85
2022/10/17 10:17:28;;;;;;;0.20;0.20;;;;;;;;;;4899645;29;20055;-84
2022/10/17 10:19:54;;;;;;;0.10;0.10;;;;;;;;;;4916023;29;20052;-82
2022/10/17 10:22:24;;;;;;;0.20;0.20;;;;;;;;;;4915434;29;20102;-81
2022/10/17 10:25:09;;;;;;;0.20;0.20;;;;;;;;;;4898992;29;20067;-81
2022/10/17 10:27:35;;;;;;;0.20;0.20;;;;;;;;;;4915974;29;20051;-80
2022/10/17 10:30:02;;;;;;;0.20;0.20;;;;;;;;;;4896921;29;20086;-80
2022/10/17 10:32:32;;;;;;;0.20;0.20;;;;;;;;;;4916162;29;20079;-79
2022/10/17 10:35:00;;;;;;;0.10;0.10;;;;;;;;;;4897957;29;20044;-80
2022/10/17 10:37:33;;;;;;;0.20;0.20;;;;;;;;;;4897256;29;20594;-79
2022/10/17 10:40:01;;;;;;;0.10;0.10;;;;;;;;;;4913301;29;20148;-79
2022/10/17 10:42:37;;;;;;;0.20;0.20;;;;;;;;;;4895197;29;20162;-79
2022/10/17 10:45:23;;;;;;;0.20;0.20;;;;;;;;;;4914133;29;20050;-79
2022/10/17 10:47:59;;;;;;;0.20;0.20;;;;;;;;;;4893614;29;20067;-78
2022/10/17 10:50:37;;;;;;;0.20;0.20;;;;;;;;;;4894183;29;20080;-79
2022/10/17 10:53:22;;;;;;;0.20;0.20;;;;;;;;;;4912979;29;20047;-78
2022/10/17 10:55:53;;;;;;;0.20;0.20;;;;;;;;;;4893274;29;20066;-79
2022/10/17 10:58:26;;;;;;;0.20;0.20;;;;;;;;;;4895975;29;20055;-78
2022/10/17 11:00:53;;;;;;;0.20;0.20;;;;;;;;;;4895726;29;20161;-78
2022/10/17 11:03:23;;;;;;;0.20;0.20;;;;;;;;;;4894781;29;20697;-79
2022/10/17 11:05:52;;;;;;;0.20;0.20;;;;;;;;;;4894598;29;20052;-78
2022/10/17 11:08:37;;;;;;;0.20;0.20;;;;;;;;;;4887417;29;20040;-79
2022/10/17 11:11:16;;;;;;;0.20;0.20;;;;;;;;;;4901178;29;20048;-79
2022/10/17 11:13:45;;;;;;;0.20;0.20;;;;;;;;;;4911136;29;20044;-79
2022/10/17 11:16:16;;;;;;;0.20;0.20;;;;;;;;;;4895716;29;20049;-79
2022/10/17 11:18:52;;;;;;;0.10;0.10;;;;;;;;;;4895057;29;20048;-79
2022/10/17 11:21:20;;;;;;;0.20;0.20;;;;;;;;;;4895318;29;20040;-79
2022/10/17 11:23:47;;;;;;;0.20;0.20;;;;;;;;;;4908372;29;20044;-79
2022/10/17 11:26:27;;;;;;;0.10;0.10;;;;;;;;;;4888951;29;20051;-79
2022/10/17 11:28:54;;;;;;;0.10;0.10;;;;;;;;;;4909428;29;20052;-79
2022/10/17 11:31:21;;;;;;;0.20;0.20;;;;;;;;;;4913690;29;20044;-80
2022/10/17 11:33:53;;;;;;;0.10;0.10;;;;;;;;;;4892972;29;20032;-79
2022/10/17 11:36:25;;;;;;;0.10;0.10;;;;;;;;;;4895964;29;20060;-79
2022/10/17 11:38:54;;;;;;;0.13;0.13;;;;;;;;;;4892000;29;20150;-80
2022/10/17 11:41:39;;;;;;;0.20;0.20;;;;;;;;;;4889764;29;20060;-79
2022/10/17 11:44:25;;;;;;;0.20;0.20;;;;;;;;;;4910868;29;20090;-80
2022/10/17 11:46:54;;;;;;;0.20;0.20;;;;;;;;;;4910574;29;20067;-79
2022/10/17 11:49:49;;;;;;;0.20;0.20;;;;;;;;;;4894678;29;20056;-78
2022/10/17 11:52:38;;;;;;;0.10;0.10;;;;;;;;;;4889780;29;20083;-79
2022/10/17 11:55:17;;;;;;;0.20;0.20;;;;;;;;;;4887835;29;20064;-80
2022/10/17 11:57:46;;;;;;;0.10;0.10;;;;;;;;;;4896391;29;20495;-79
2022/10/17 12:00:15;;;;;;;0.13;0.13;;;;;;;;;;4893602;29;20052;-80
2022/10/17 12:02:45;;;;;;;0.20;0.20;;;;;;;;;;4913073;29;20040;-79
2022/10/17 12:05:20;;;;;;;0.20;0.20;;;;;;;;;;4895618;29;20447;-79
2022/10/17 12:07:56;;;;;;;0.20;0.20;;;;;;;;;;4895630;29;20089;-79
2022/10/17 12:10:32;;;;;;;0.20;0.20;;;;;;;;;;4895371;29;20674;-78
2022/10/17 12:13:18;;;;;;;0.13;0.13;;;;;;;;;;4893942;29;20123;-78
2022/10/17 12:15:44;;;;;;;0.15;0.15;;;;;;;;;;4912178;29;20059;-79
2022/10/17 12:18:15;;;;;;;0.20;0.20;;;;;;;;;;4894884;29;20403;-77
2022/10/17 12:20:41;;;;;;;0.20;0.20;;;;;;;;;;4910847;29;20042;-79
2022/10/17 12:23:10;;;;;;;0.10;0.10;;;;;;;;;;4910323;29;20040;-78
2022/10/17 12:25:38;;;;;;;0.20;0.20;;;;;;;;;;4907088;29;20135;-78
2022/10/17 12:28:12;;;;;;;0.10;0.10;;;;;;;;;;4910505;29;20056;-78
2022/10/17 12:30:48;;;;;;;0.10;0.10;;;;;;;;;;4909289;29;20242;-79
2022/10/17 12:33:21;;;;;;;0.20;0.20;;;;;;;;;;4913070;29;20578;-79
2022/10/17 12:35:48;;;;;;;0.10;0.10;;;;;;;;;;4914497;29;20095;-78
2022/10/17 12:38:17;;;;;;;0.20;0.20;;;;;;;;;;4911773;29;20051;-78
2022/10/17 12:40:46;;;;;;;0.20;0.20;;;;;;;;;;4911997;29;20048;-79
2022/10/17 12:43:14;;;;;;;0.20;0.20;;;;;;;;;;4910605;29;20973;-78
2022/10/17 12:45:44;;;;;;;0.20;0.20;;;;;;;;;;4893476;29;20044;-77
2022/10/17 12:48:10;;;;;;;0.20;0.20;;;;;;;;;;4910282;29;20071;-79
2022/10/17 12:50:55;;;;;;;0.20;0.20;;;;;;;;;;4893873;29;20047;-79
2022/10/17 12:53:24;;;;;;;0.10;0.10;;;;;;;;;;4909812;29;20058;-78
2022/10/17 12:55:50;;;;;;;0.20;0.20;;;;;;;;;;4894384;29;20040;-79
2022/10/17 12:58:16;;;;;;;0.20;0.20;;;;;;;;;;4911325;29;20048;-79
2022/10/17 13:00:42;;;;;;;0.20;0.20;;;;;;;;;;4911821;29;20075;-79
2022/10/17 13:03:32;;;;;;;0.20;0.20;;;;;;;;;;4894401;29;20040;-79
2022/10/17 13:06:02;;;;;;;0.20;0.20;;;;;;;;;;4884307;29;20075;-79
2022/10/17 13:08:30;;;;;;;0.20;0.20;;;;;;;;;;4905901;29;20048;-79
2022/10/17 13:10:57;;;;;;;0.20;0.20;;;;;;;;;;4894517;29;20312;-79
2022/10/17 13:13:25;;;;;;;0.20;0.20;;;;;;;;;;4911067;29;20499;-79
2022/10/17 13:15:52;;;;;;;0.10;0.10;;;;;;;;;;4911868;29;20115;-79
2022/10/17 13:18:23;;;;;;;0.20;0.20;;;;;;;;;;4911200;29;20618;-79
2022/10/17 13:21:15;;;;;;;0.20;0.20;;;;;;;;;;4909080;29;20048;-79
2022/10/17 13:23:41;;;;;;;0.20;0.20;;;;;;;;;;4904817;29;20056;-79
2022/10/17 13:26:21;;;;;;;0.10;0.10;;;;;;;;;;4912375;29;20143;-79
2022/10/17 13:29:07;;;;;;;0.10;0.10;;;;;;;;;;4891543;29;20056;-79
2022/10/17 13:31:34;;;;;;;0.15;0.15;;;;;;;;;;4899531;29;20063;-79
2022/10/17 13:34:01;;;;;;;0.20;0.20;;;;;;;;;;4890464;29;20463;-79
2022/10/17 13:36:27;;;;;;;0.20;0.20;;;;;;;;;;4894339;29;20048;-80
2022/10/17 13:38:54;;;;;;;0.20;0.20;;;;;;;;;;4892070;29;20048;-79
2022/10/17 13:41:24;;;;;;;0.20;0.20;;;;;;;;;;4911887;29;20547;-79
2022/10/17 13:43:51;;;;;;;0.20;0.20;;;;;;;;;;4892852;29;20504;-80
2022/10/17 13:46:24;;;;;;;0.10;0.10;;;;;;;;;;4895810;29;20051;-79
2022/10/17 13:48:50;;;;;;;0.20;0.20;;;;;;;;;;4894378;29;20495;-77
2022/10/17 13:51:16;;;;;;;0.10;0.10;;;;;;;;;;4908556;29;20535;-79
2022/10/17 13:53:43;;;;;;;0.20;0.20;;;;;;;;;;4906836;29;20158;-79
2022/10/17 13:56:12;;;;;;;0.15;0.15;;;;;;;;;;4909774;29;20712;-79
2022/10/17 13:58:43;;;;;;;0.10;0.10;;;;;;;;;;4913469;29;20511;-80
2022/10/17 14:01:09;;;;;;;0.20;0.20;;;;;;;;;;4911267;29;20048;-78
2022/10/17 14:03:38;;;;;;;0.20;0.20;;;;;;;;;;4894714;29;20048;-79
2022/10/17 14:06:08;;;;;;;0.10;0.10;;;;;;;;;;4892661;29;20055;-79
2022/10/17 14:08:35;;;;;;;0.15;0.15;;;;;;;;;;4911621;29;20048;-79
2022/10/17 14:11:01;;;;;;;0.20;0.20;;;;;;;;;;4894276;29;20423;-78
2022/10/17 14:13:29;;;;;;;0.20;0.20;;;;;;;;;;4892999;29;20052;-79
2022/10/17 14:15:58;;;;;;;0.10;0.10;;;;;;;;;;4911073;29;20055;-79
2022/10/17 14:18:26;;;;;;;0.20;0.20;;;;;;;;;;4911069;29;20082;-78
2022/10/17 14:20:53;;;;;;;0.10;0.10;;;;;;;;;;4893474;29;20055;-79
2022/10/17 14:23:37;;;;;;;0.10;0.10;;;;;;;;;;4911249;29;20104;-78
2022/10/17 14:26:05;;;;;;;0.10;0.10;;;;;;;;;;4893054;29;20079;-79
2022/10/17 14:28:31;;;;;;;0.20;0.20;;;;;;;;;;4911284;29;20037;-78
2022/10/17 14:31:10;;;;;;;0.20;0.20;;;;;;;;;;4894515;29;20475;-78
2022/10/17 14:33:37;;;;;;;0.20;0.20;;;;;;;;;;4894536;29;20044;-79
2022/10/17 14:36:04;;;;;;;0.10;0.10;;;;;;;;;;4909921;29;20048;-80
2022/10/17 14:38:31;;;;;;;0.20;0.20;;;;;;;;;;4911289;29;20039;-78
2022/10/17 14:41:01;;;;;;;0.20;0.20;;;;;;;;;;4896290;29;20396;-79
2022/10/17 14:43:29;;;;;;;0.20;0.20;;;;;;;;;;4913183;29;20067;-79
2022/10/17 14:46:01;;;;;;;0.10;0.10;;;;;;;;;;4898050;29;20048;-79
2022/10/17 14:48:30;;;;;;;0.17;0.17;;;;;;;;;;4896142;29;20055;-79
2022/10/17 14:51:09;;;;;;;0.10;0.10;;;;;;;;;;4897780;29;20074;-80
2022/10/17 14:53:35;;;;;;;0.17;0.17;;;;;;;;;;4897597;29;20380;-78
2022/10/17 14:56:04;;;;;;;0.10;0.10;;;;;;;;;;4895725;29;20080;-80
2022/10/17 14:58:31;;;;;;;0.10;0.10;;;;;;;;;;4913165;29;20361;-80
2022/10/17 15:00:58;;;;;;;0.20;0.20;;;;;;;;;;4897320;29;20396;-79
2022/10/17 15:03:24;;;;;;;0.10;0.10;;;;;;;;;;4900063;29;20530;-79